sensor_id;sensor_type;location;lat;lon;timestamp;temperature;humidity
64654;DHT22;51065;48.884;12.598;2023-02-28T00:00:19;-1.90;96.90
64654;DHT22;51065;48.884;12.598;2023-02-28T00:02:45;-1.80;96.60
64654;DHT22;51065;48.884;12.598;2023-02-28T00:05:13;-1.90;96.60
64654;DHT22;51065;48.884;12.598;2023-02-28T00:07:39;-1.90;97.30
64654;DHT22;51065;48.884;12.598;2023-02-28T00:10:06;-1.90;96.70
64654;DHT22;51065;48.884;12.598;2023-02-28T00:12:33;-1.90;97.00
64654;DHT22;51065;48.884;12.598;2023-02-28T00:14:59;-1.90;96.70
64654;DHT22;51065;48.884;12.598;2023-02-28T00:17:25;-1.90;96.40
64654;DHT22;51065;48.884;12.598;2023-02-28T00:19:51;-1.90;96.20
64654;DHT22;51065;48.884;12.598;2023-02-28T00:22:18;-1.90;96.40
64654;DHT22;51065;48.884;12.598;2023-02-28T00:24:44;-1.90;96.40
64654;DHT22;51065;48.884;12.598;2023-02-28T00:27:10;-2.00;97.00
64654;DHT22;51065;48.884;12.598;2023-02-28T00:29:37;-2.00;97.10
64654;DHT22;51065;48.884;12.598;2023-02-28T00:32:03;-1.90;96.50
64654;DHT22;51065;48.884;12.598;2023-02-28T00:34:29;-1.90;96.80
64654;DHT22;51065;48.884;12.598;2023-02-28T00:36:54;-1.90;96.90
64654;DHT22;51065;48.884;12.598;2023-02-28T00:39:20;-1.90;96.80
64654;DHT22;51065;48.884;12.598;2023-02-28T00:41:45;-1.90;97.30
64654;DHT22;51065;48.884;12.598;2023-02-28T00:44:11;-2.00;97.70
64654;DHT22;51065;48.884;12.598;2023-02-28T00:46:36;-2.00;98.10
64654;DHT22;51065;48.884;12.598;2023-02-28T00:49:02;-2.10;98.10
64654;DHT22;51065;48.884;12.598;2023-02-28T00:51:28;-2.00;98.10
64654;DHT22;51065;48.884;12.598;2023-02-28T00:53:53;-2.10;98.30
64654;DHT22;51065;48.884;12.598;2023-02-28T00:56:20;-2.10;98.60
64654;DHT22;51065;48.884;12.598;2023-02-28T00:58:46;-2.20;99.00
64654;DHT22;51065;48.884;12.598;2023-02-28T01:01:11;-2.10;99.00
64654;DHT22;51065;48.884;12.598;2023-02-28T01:03:37;-2.20;99.50
64654;DHT22;51065;48.884;12.598;2023-02-28T01:06:03;-2.30;99.90
64654;DHT22;51065;48.884;12.598;2023-02-28T01:08:29;-2.40;99.90
64654;DHT22;51065;48.884;12.598;2023-02-28T01:10:55;-2.60;99.90
64654;DHT22;51065;48.884;12.598;2023-02-28T01:13:20;-2.70;99.90
64654;DHT22;51065;48.884;12.598;2023-02-28T01:15:54;-2.60;99.90
64654;DHT22;51065;48.884;12.598;2023-02-28T01:18:21;-2.60;99.90
64654;DHT22;51065;48.884;12.598;2023-02-28T01:20:47;-2.60;99.90
64654;DHT22;51065;48.884;12.598;2023-02-28T01:23:13;-2.60;99.90
64654;DHT22;51065;48.884;12.598;2023-02-28T01:25:39;-2.60;99.90
64654;DHT22;51065;48.884;12.598;2023-02-28T01:28:05;-2.60;99.90
64654;DHT22;51065;48.884;12.598;2023-02-28T01:30:32;-2.60;99.90
64654;DHT22;51065;48.884;12.598;2023-02-28T01:32:58;-2.60;99.90
64654;DHT22;51065;48.884;12.598;2023-02-28T01:35:23;-2.50;99.90
64654;DHT22;51065;48.884;12.598;2023-02-28T01:37:49;-2.50;99.90
64654;DHT22;51065;48.884;12.598;2023-02-28T01:40:14;-2.60;99.90
64654;DHT22;51065;48.884;12.598;2023-02-28T01:42:40;-2.60;99.90
64654;DHT22;51065;48.884;12.598;2023-02-28T01:45:27;-2.60;99.90
64654;DHT22;51065;48.884;12.598;2023-02-28T01:48:00;-2.50;99.90
64654;DHT22;51065;48.884;12.598;2023-02-28T01:50:29;-2.60;99.90
64654;DHT22;51065;48.884;12.598;2023-02-28T01:52:58;-2.60;99.90
64654;DHT22;51065;48.884;12.598;2023-02-28T01:55:26;-2.70;99.90
64654;DHT22;51065;48.884;12.598;2023-02-28T01:57:57;-2.70;99.90
64654;DHT22;51065;48.884;12.598;2023-02-28T02:00:25;-2.60;99.90
64654;DHT22;51065;48.884;12.598;2023-02-28T02:02:57;-2.60;99.90
64654;DHT22;51065;48.884;12.598;2023-02-28T02:05:26;-2.70;99.90
64654;DHT22;51065;48.884;12.598;2023-02-28T02:08:01;-2.70;99.90
64654;DHT22;51065;48.884;12.598;2023-02-28T02:10:36;-2.70;99.90
64654;DHT22;51065;48.884;12.598;2023-02-28T02:21:55;-2.80;99.90
64654;DHT22;51065;48.884;12.598;2023-02-28T02:24:48;-2.80;99.90
64654;DHT22;51065;48.884;12.598;2023-02-28T02:36:06;-2.90;99.90
64654;DHT22;51065;48.884;12.598;2023-02-28T02:38:47;-2.80;99.90
64654;DHT22;51065;48.884;12.598;2023-02-28T02:41:28;-2.90;99.90
64654;DHT22;51065;48.884;12.598;2023-02-28T02:44:21;-2.90;99.90
64654;DHT22;51065;48.884;12.598;2023-02-28T02:46:49;-2.90;99.90
64654;DHT22;51065;48.884;12.598;2023-02-28T02:49:29;-3.00;99.90
64654;DHT22;51065;48.884;12.598;2023-02-28T02:51:57;-3.00;99.90
64654;DHT22;51065;48.884;12.598;2023-02-28T02:54:28;-3.00;99.90
64654;DHT22;51065;48.884;12.598;2023-02-28T02:56:58;-2.90;99.90
64654;DHT22;51065;48.884;12.598;2023-02-28T02:59:25;-2.90;99.90
64654;DHT22;51065;48.884;12.598;2023-02-28T03:01:56;-3.00;99.90
64654;DHT22;51065;48.884;12.598;2023-02-28T03:04:24;-3.10;99.90
64654;DHT22;51065;48.884;12.598;2023-02-28T03:06:52;-3.10;99.90
64654;DHT22;51065;48.884;12.598;2023-02-28T03:09:22;-3.20;99.90
64654;DHT22;51065;48.884;12.598;2023-02-28T03:11:48;-3.10;99.90
64654;DHT22;51065;48.884;12.598;2023-02-28T03:17:09;-3.20;99.90
64654;DHT22;51065;48.884;12.598;2023-02-28T03:20:47;-3.30;99.90
64654;DHT22;51065;48.884;12.598;2023-02-28T03:22:52;-3.30;99.90
64654;DHT22;51065;48.884;12.598;2023-02-28T03:25:29;-3.20;99.90
64654;DHT22;51065;48.884;12.598;2023-02-28T03:28:08;-3.20;99.90
64654;DHT22;51065;48.884;12.598;2023-02-28T03:30:49;-3.10;99.90
64654;DHT22;51065;48.884;12.598;2023-02-28T03:33:23;-3.10;99.90
64654;DHT22;51065;48.884;12.598;2023-02-28T03:35:54;-3.10;99.90
64654;DHT22;51065;48.884;12.598;2023-02-28T03:41:00;-3.20;99.90
64654;DHT22;51065;48.884;12.598;2023-02-28T03:43:31;-3.20;99.90
64654;DHT22;51065;48.884;12.598;2023-02-28T03:45:58;-3.50;99.90
64654;DHT22;51065;48.884;12.598;2023-02-28T03:48:36;-3.50;99.90
64654;DHT22;51065;48.884;12.598;2023-02-28T03:51:03;-3.60;99.90
64654;DHT22;51065;48.884;12.598;2023-02-28T03:53:35;-3.70;99.90
64654;DHT22;51065;48.884;12.598;2023-02-28T03:58:48;-3.50;99.90
64654;DHT22;51065;48.884;12.598;2023-02-28T04:01:21;-3.60;99.90
64654;DHT22;51065;48.884;12.598;2023-02-28T04:03:49;-3.80;99.90
64654;DHT22;51065;48.884;12.598;2023-02-28T04:06:20;-3.80;99.90
64654;DHT22;51065;48.884;12.598;2023-02-28T04:08:46;-3.70;99.90
64654;DHT22;51065;48.884;12.598;2023-02-28T04:14:01;-3.70;99.90
64654;DHT22;51065;48.884;12.598;2023-02-28T04:16:27;-3.60;99.90
64654;DHT22;51065;48.884;12.598;2023-02-28T04:18:53;-3.50;99.90
64654;DHT22;51065;48.884;12.598;2023-02-28T04:21:18;-3.40;99.90
64654;DHT22;51065;48.884;12.598;2023-02-28T04:23:46;-3.40;99.90
64654;DHT22;51065;48.884;12.598;2023-02-28T04:26:11;-3.30;99.90
64654;DHT22;51065;48.884;12.598;2023-02-28T04:28:37;-3.20;99.90
64654;DHT22;51065;48.884;12.598;2023-02-28T04:31:05;-3.10;99.90
64654;DHT22;51065;48.884;12.598;2023-02-28T04:33:31;-3.20;99.90
64654;DHT22;51065;48.884;12.598;2023-02-28T04:36:02;-3.10;99.90
64654;DHT22;51065;48.884;12.598;2023-02-28T04:38:29;-3.20;99.90
64654;DHT22;51065;48.884;12.598;2023-02-28T04:40:57;-3.20;99.90
64654;DHT22;51065;48.884;12.598;2023-02-28T04:43:23;-3.20;99.90
64654;DHT22;51065;48.884;12.598;2023-02-28T04:45:48;-3.10;99.90
64654;DHT22;51065;48.884;12.598;2023-02-28T04:48:14;-3.20;99.90
64654;DHT22;51065;48.884;12.598;2023-02-28T04:50:40;-3.20;99.90
64654;DHT22;51065;48.884;12.598;2023-02-28T04:53:05;-3.30;99.90
64654;DHT22;51065;48.884;12.598;2023-02-28T04:55:31;-3.40;99.90
64654;DHT22;51065;48.884;12.598;2023-02-28T04:57:57;-3.40;99.90
64654;DHT22;51065;48.884;12.598;2023-02-28T05:00:23;-3.30;99.90
64654;DHT22;51065;48.884;12.598;2023-02-28T05:02:48;-3.40;99.90
64654;DHT22;51065;48.884;12.598;2023-02-28T05:05:14;-3.50;99.90
64654;DHT22;51065;48.884;12.598;2023-02-28T05:07:44;-3.40;99.90
64654;DHT22;51065;48.884;12.598;2023-02-28T05:10:10;-3.50;99.90
64654;DHT22;51065;48.884;12.598;2023-02-28T05:12:36;-3.40;99.90
64654;DHT22;51065;48.884;12.598;2023-02-28T05:15:02;-3.30;99.90
64654;DHT22;51065;48.884;12.598;2023-02-28T05:17:28;-3.30;99.90
64654;DHT22;51065;48.884;12.598;2023-02-28T05:19:54;-3.20;99.90
64654;DHT22;51065;48.884;12.598;2023-02-28T05:22:19;-3.30;99.90
64654;DHT22;51065;48.884;12.598;2023-02-28T05:24:45;-3.40;99.90
64654;DHT22;51065;48.884;12.598;2023-02-28T05:27:10;-3.40;99.90
64654;DHT22;51065;48.884;12.598;2023-02-28T05:29:36;-3.50;99.90
64654;DHT22;51065;48.884;12.598;2023-02-28T05:32:08;-3.50;99.90
64654;DHT22;51065;48.884;12.598;2023-02-28T05:34:34;-3.50;99.90
64654;DHT22;51065;48.884;12.598;2023-02-28T05:36:59;-3.60;99.90
64654;DHT22;51065;48.884;12.598;2023-02-28T05:39:25;-3.60;99.90
64654;DHT22;51065;48.884;12.598;2023-02-28T05:41:50;-3.60;99.90
64654;DHT22;51065;48.884;12.598;2023-02-28T05:44:16;-3.60;99.90
64654;DHT22;51065;48.884;12.598;2023-02-28T05:46:41;-3.60;99.90
64654;DHT22;51065;48.884;12.598;2023-02-28T05:49:07;-3.60;99.90
64654;DHT22;51065;48.884;12.598;2023-02-28T05:51:33;-3.70;99.90
64654;DHT22;51065;48.884;12.598;2023-02-28T05:54:00;-3.70;99.90
64654;DHT22;51065;48.884;12.598;2023-02-28T05:56:26;-3.70;99.90
64654;DHT22;51065;48.884;12.598;2023-02-28T05:58:52;-3.60;99.90
64654;DHT22;51065;48.884;12.598;2023-02-28T06:01:25;-3.60;99.90
64654;DHT22;51065;48.884;12.598;2023-02-28T06:03:55;-3.60;99.90
64654;DHT22;51065;48.884;12.598;2023-02-28T06:06:21;-3.50;99.90
64654;DHT22;51065;48.884;12.598;2023-02-28T06:08:46;-3.60;99.90
64654;DHT22;51065;48.884;12.598;2023-02-28T06:11:12;-3.60;99.90
64654;DHT22;51065;48.884;12.598;2023-02-28T06:13:38;-3.50;99.90
64654;DHT22;51065;48.884;12.598;2023-02-28T06:16:04;-3.40;99.90
64654;DHT22;51065;48.884;12.598;2023-02-28T06:18:31;-3.30;99.90
64654;DHT22;51065;48.884;12.598;2023-02-28T06:20:56;-3.20;99.90
64654;DHT22;51065;48.884;12.598;2023-02-28T06:23:22;-3.10;99.90
64654;DHT22;51065;48.884;12.598;2023-02-28T06:25:48;-3.20;99.90
64654;DHT22;51065;48.884;12.598;2023-02-28T06:28:14;-3.00;99.90
64654;DHT22;51065;48.884;12.598;2023-02-28T06:30:40;-2.90;99.90
64654;DHT22;51065;48.884;12.598;2023-02-28T06:33:05;-2.80;99.90
64654;DHT22;51065;48.884;12.598;2023-02-28T06:35:31;-2.60;99.90
64654;DHT22;51065;48.884;12.598;2023-02-28T06:37:57;-2.50;99.90
64654;DHT22;51065;48.884;12.598;2023-02-28T06:40:23;-2.20;99.90
64654;DHT22;51065;48.884;12.598;2023-02-28T06:42:48;-1.70;99.90
64654;DHT22;51065;48.884;12.598;2023-02-28T06:45:14;-1.60;99.90
64654;DHT22;51065;48.884;12.598;2023-02-28T06:47:41;-1.20;99.90
64654;DHT22;51065;48.884;12.598;2023-02-28T06:50:08;-0.90;97.80
64654;DHT22;51065;48.884;12.598;2023-02-28T06:52:34;-0.60;96.70
64654;DHT22;51065;48.884;12.598;2023-02-28T06:55:06;-0.30;94.60
64654;DHT22;51065;48.884;12.598;2023-02-28T06:57:33;0.00;93.00
64654;DHT22;51065;48.884;12.598;2023-02-28T07:00:02;0.10;91.50
64654;DHT22;51065;48.884;12.598;2023-02-28T07:02:28;0.40;91.00
64654;DHT22;51065;48.884;12.598;2023-02-28T07:04:54;0.50;88.60
64654;DHT22;51065;48.884;12.598;2023-02-28T07:07:20;0.70;85.20
64654;DHT22;51065;48.884;12.598;2023-02-28T07:09:48;0.80;85.60
64654;DHT22;51065;48.884;12.598;2023-02-28T07:12:14;1.10;80.40
64654;DHT22;51065;48.884;12.598;2023-02-28T07:14:39;1.00;80.30
64654;DHT22;51065;48.884;12.598;2023-02-28T07:17:08;1.00;80.60
64654;DHT22;51065;48.884;12.598;2023-02-28T07:19:33;1.10;76.50
64654;DHT22;51065;48.884;12.598;2023-02-28T07:21:59;1.30;76.50
64654;DHT22;51065;48.884;12.598;2023-02-28T07:24:25;1.70;72.30
64654;DHT22;51065;48.884;12.598;2023-02-28T07:26:53;1.60;71.60
64654;DHT22;51065;48.884;12.598;2023-02-28T07:29:19;1.80;71.90
64654;DHT22;51065;48.884;12.598;2023-02-28T07:31:45;1.80;69.00
64654;DHT22;51065;48.884;12.598;2023-02-28T07:34:14;2.30;68.90
64654;DHT22;51065;48.884;12.598;2023-02-28T07:36:40;2.40;66.90
64654;DHT22;51065;48.884;12.598;2023-02-28T07:39:05;2.40;65.50
64654;DHT22;51065;48.884;12.598;2023-02-28T07:41:31;2.60;65.70
64654;DHT22;51065;48.884;12.598;2023-02-28T07:43:59;2.80;63.20
64654;DHT22;51065;48.884;12.598;2023-02-28T07:46:26;2.80;63.50
64654;DHT22;51065;48.884;12.598;2023-02-28T07:48:51;2.90;61.60
64654;DHT22;51065;48.884;12.598;2023-02-28T07:51:18;3.10;61.50
64654;DHT22;51065;48.884;12.598;2023-02-28T07:53:44;3.20;60.30
64654;DHT22;51065;48.884;12.598;2023-02-28T07:56:10;3.00;61.60
64654;DHT22;51065;48.884;12.598;2023-02-28T07:58:36;3.10;61.60
64654;DHT22;51065;48.884;12.598;2023-02-28T08:01:06;3.30;61.00
64654;DHT22;51065;48.884;12.598;2023-02-28T08:03:32;3.10;60.00
64654;DHT22;51065;48.884;12.598;2023-02-28T08:05:57;3.50;61.10
64654;DHT22;51065;48.884;12.598;2023-02-28T08:08:23;3.30;58.80
64654;DHT22;51065;48.884;12.598;2023-02-28T08:10:49;3.30;58.60
64654;DHT22;51065;48.884;12.598;2023-02-28T08:13:14;3.50;59.40
64654;DHT22;51065;48.884;12.598;2023-02-28T08:15:41;3.90;58.80
64654;DHT22;51065;48.884;12.598;2023-02-28T08:18:08;4.10;59.00
64654;DHT22;51065;48.884;12.598;2023-02-28T08:20:33;4.40;56.60
64654;DHT22;51065;48.884;12.598;2023-02-28T08:22:59;4.30;56.50
64654;DHT22;51065;48.884;12.598;2023-02-28T08:25:25;4.40;56.90
64654;DHT22;51065;48.884;12.598;2023-02-28T08:27:51;4.50;55.50
64654;DHT22;51065;48.884;12.598;2023-02-28T08:30:17;4.00;55.90
64654;DHT22;51065;48.884;12.598;2023-02-28T08:32:43;4.00;56.00
64654;DHT22;51065;48.884;12.598;2023-02-28T08:35:09;4.00;56.50
64654;DHT22;51065;48.884;12.598;2023-02-28T08:37:35;4.60;56.90
64654;DHT22;51065;48.884;12.598;2023-02-28T08:40:01;4.40;55.90
64654;DHT22;51065;48.884;12.598;2023-02-28T08:42:26;4.60;56.10
64654;DHT22;51065;48.884;12.598;2023-02-28T08:44:52;5.00;55.80
64654;DHT22;51065;48.884;12.598;2023-02-28T08:50:38;6.00;50.70
64654;DHT22;51065;48.884;12.598;2023-02-28T08:53:04;6.70;48.00
64654;DHT22;51065;48.884;12.598;2023-02-28T08:55:29;6.70;47.90
64654;DHT22;51065;48.884;12.598;2023-02-28T08:57:55;6.60;47.00
64654;DHT22;51065;48.884;12.598;2023-02-28T09:00:21;6.80;46.20
64654;DHT22;51065;48.884;12.598;2023-02-28T09:02:47;7.10;45.90
64654;DHT22;51065;48.884;12.598;2023-02-28T09:05:12;6.60;46.30
64654;DHT22;51065;48.884;12.598;2023-02-28T09:07:38;7.00;46.60
64654;DHT22;51065;48.884;12.598;2023-02-28T09:10:04;6.50;46.30
64654;DHT22;51065;48.884;12.598;2023-02-28T09:12:33;6.50;46.90
64654;DHT22;51065;48.884;12.598;2023-02-28T09:14:59;6.80;46.60
64654;DHT22;51065;48.884;12.598;2023-02-28T09:17:24;6.80;45.90
64654;DHT22;51065;48.884;12.598;2023-02-28T09:19:50;6.90;45.90
64654;DHT22;51065;48.884;12.598;2023-02-28T09:22:15;7.00;46.80
64654;DHT22;51065;48.884;12.598;2023-02-28T09:24:42;6.90;44.60
64654;DHT22;51065;48.884;12.598;2023-02-28T09:27:07;6.60;46.30
64654;DHT22;51065;48.884;12.598;2023-02-28T09:29:33;7.10;46.10
64654;DHT22;51065;48.884;12.598;2023-02-28T09:32:00;7.00;45.00
64654;DHT22;51065;48.884;12.598;2023-02-28T09:34:27;6.80;45.90
64654;DHT22;51065;48.884;12.598;2023-02-28T09:36:52;6.90;46.60
64654;DHT22;51065;48.884;12.598;2023-02-28T09:39:21;7.00;45.60
64654;DHT22;51065;48.884;12.598;2023-02-28T09:41:51;6.90;46.30
64654;DHT22;51065;48.884;12.598;2023-02-28T09:44:28;7.00;46.30
64654;DHT22;51065;48.884;12.598;2023-02-28T09:46:58;7.50;45.90
64654;DHT22;51065;48.884;12.598;2023-02-28T09:49:39;7.40;45.70
64654;DHT22;51065;48.884;12.598;2023-02-28T09:52:11;7.20;45.10
64654;DHT22;51065;48.884;12.598;2023-02-28T09:54:37;7.70;44.80
64654;DHT22;51065;48.884;12.598;2023-02-28T09:57:38;8.10;43.80
64654;DHT22;51065;48.884;12.598;2023-02-28T10:00:21;7.80;44.20
64654;DHT22;51065;48.884;12.598;2023-02-28T10:03:09;7.10;44.20
64654;DHT22;51065;48.884;12.598;2023-02-28T10:05:54;7.10;45.20
64654;DHT22;51065;48.884;12.598;2023-02-28T10:08:38;6.90;45.80
64654;DHT22;51065;48.884;12.598;2023-02-28T10:11:10;6.90;45.50
64654;DHT22;51065;48.884;12.598;2023-02-28T10:17:04;6.90;45.80
64654;DHT22;51065;48.884;12.598;2023-02-28T10:19:22;7.20;46.00
64654;DHT22;51065;48.884;12.598;2023-02-28T10:21:59;7.40;45.30
64654;DHT22;51065;48.884;12.598;2023-02-28T10:24:43;7.60;44.90
64654;DHT22;51065;48.884;12.598;2023-02-28T10:27:16;7.20;44.10
64654;DHT22;51065;48.884;12.598;2023-02-28T10:29:50;6.90;46.00
64654;DHT22;51065;48.884;12.598;2023-02-28T10:32:25;7.60;45.60
64654;DHT22;51065;48.884;12.598;2023-02-28T10:35:09;7.60;45.00
64654;DHT22;51065;48.884;12.598;2023-02-28T10:37:40;7.80;44.40
64654;DHT22;51065;48.884;12.598;2023-02-28T10:40:31;7.70;44.90
64654;DHT22;51065;48.884;12.598;2023-02-28T10:45:23;7.70;45.10
64654;DHT22;51065;48.884;12.598;2023-02-28T10:58:52;8.60;43.30
64654;DHT22;51065;48.884;12.598;2023-02-28T11:03:55;8.60;43.00
64654;DHT22;51065;48.884;12.598;2023-02-28T11:06:32;8.30;44.30
64654;DHT22;51065;48.884;12.598;2023-02-28T11:09:23;7.90;43.60
64654;DHT22;51065;48.884;12.598;2023-02-28T11:11:46;8.30;44.20
64654;DHT22;51065;48.884;12.598;2023-02-28T11:14:24;8.50;43.50
64654;DHT22;51065;48.884;12.598;2023-02-28T11:16:51;8.40;43.30
64654;DHT22;51065;48.884;12.598;2023-02-28T11:19:25;8.70;45.30
64654;DHT22;51065;48.884;12.598;2023-02-28T11:22:00;8.80;42.80
64654;DHT22;51065;48.884;12.598;2023-02-28T11:24:42;8.70;43.40
64654;DHT22;51065;48.884;12.598;2023-02-28T11:29:56;8.50;44.00
64654;DHT22;51065;48.884;12.598;2023-02-28T11:32:23;8.90;43.50
64654;DHT22;51065;48.884;12.598;2023-02-28T11:35:13;9.20;42.70
64654;DHT22;51065;48.884;12.598;2023-02-28T11:37:40;9.40;42.40
64654;DHT22;51065;48.884;12.598;2023-02-28T11:40:17;9.80;42.30
64654;DHT22;51065;48.884;12.598;2023-02-28T11:42:55;9.80;41.70
64654;DHT22;51065;48.884;12.598;2023-02-28T11:48:08;10.20;41.80
64654;DHT22;51065;48.884;12.598;2023-02-28T11:51:06;9.90;40.80
64654;DHT22;51065;48.884;12.598;2023-02-28T11:53:57;10.90;41.10
64654;DHT22;51065;48.884;12.598;2023-02-28T11:56:48;10.50;40.20
64654;DHT22;51065;48.884;12.598;2023-02-28T11:59:52;9.20;41.50
64654;DHT22;51065;48.884;12.598;2023-02-28T12:02:44;9.20;42.20
64654;DHT22;51065;48.884;12.598;2023-02-28T12:05:30;9.50;41.70
64654;DHT22;51065;48.884;12.598;2023-02-28T12:13:24;11.50;38.20
64654;DHT22;51065;48.884;12.598;2023-02-28T12:19:21;10.60;41.10
64654;DHT22;51065;48.884;12.598;2023-02-28T12:22:05;11.20;40.10
64654;DHT22;51065;48.884;12.598;2023-02-28T12:27:24;10.60;40.30
64654;DHT22;51065;48.884;12.598;2023-02-28T12:30:02;10.50;41.00
64654;DHT22;51065;48.884;12.598;2023-02-28T12:32:32;10.20;41.30
64654;DHT22;51065;48.884;12.598;2023-02-28T12:35:12;10.10;41.80
64654;DHT22;51065;48.884;12.598;2023-02-28T12:37:46;9.80;41.30
64654;DHT22;51065;48.884;12.598;2023-02-28T12:40:20;9.60;43.00
64654;DHT22;51065;48.884;12.598;2023-02-28T12:42:50;10.60;41.70
64654;DHT22;51065;48.884;12.598;2023-02-28T12:45:23;9.80;42.70
64654;DHT22;51065;48.884;12.598;2023-02-28T12:48:10;9.80;42.90
64654;DHT22;51065;48.884;12.598;2023-02-28T12:50:39;10.30;42.90
64654;DHT22;51065;48.884;12.598;2023-02-28T12:53:09;10.70;41.10
64654;DHT22;51065;48.884;12.598;2023-02-28T13:01:04;8.50;43.80
64654;DHT22;51065;48.884;12.598;2023-02-28T13:03:45;8.60;45.10
64654;DHT22;51065;48.884;12.598;2023-02-28T13:09:09;8.70;45.10
64654;DHT22;51065;48.884;12.598;2023-02-28T13:11:44;8.50;45.90
64654;DHT22;51065;48.884;12.598;2023-02-28T13:14:36;8.60;46.20
64654;DHT22;51065;48.884;12.598;2023-02-28T13:19:58;8.50;46.10
64654;DHT22;51065;48.884;12.598;2023-02-28T13:22:42;8.50;45.60
64654;DHT22;51065;48.884;12.598;2023-02-28T13:28:00;8.20;46.10
64654;DHT22;51065;48.884;12.598;2023-02-28T13:33:24;8.40;46.70
64654;DHT22;51065;48.884;12.598;2023-02-28T13:38:46;9.40;43.70
64654;DHT22;51065;48.884;12.598;2023-02-28T13:44:05;9.20;44.30
64654;DHT22;51065;48.884;12.598;2023-02-28T13:46:32;9.00;46.20
64654;DHT22;51065;48.884;12.598;2023-02-28T14:03:11;7.50;48.80
64654;DHT22;51065;48.884;12.598;2023-02-28T14:05:41;7.50;48.60
64654;DHT22;51065;48.884;12.598;2023-02-28T14:08:20;7.30;48.50
64654;DHT22;51065;48.884;12.598;2023-02-28T14:10:50;6.90;50.20
64654;DHT22;51065;48.884;12.598;2023-02-28T14:16:01;7.30;50.10
64654;DHT22;51065;48.884;12.598;2023-02-28T14:26:35;6.00;53.60
64654;DHT22;51065;48.884;12.598;2023-02-28T14:32:21;5.60;55.20
64654;DHT22;51065;48.884;12.598;2023-02-28T14:34:55;5.60;55.00
64654;DHT22;51065;48.884;12.598;2023-02-28T14:37:30;5.50;54.60
64654;DHT22;51065;48.884;12.598;2023-02-28T14:39:59;5.50;55.10
64654;DHT22;51065;48.884;12.598;2023-02-28T14:42:30;5.50;55.60
64654;DHT22;51065;48.884;12.598;2023-02-28T14:44:56;5.40;57.20
64654;DHT22;51065;48.884;12.598;2023-02-28T14:47:25;5.40;56.90
64654;DHT22;51065;48.884;12.598;2023-02-28T14:49:52;5.30;55.40
64654;DHT22;51065;48.884;12.598;2023-02-28T14:54:54;5.30;56.60
64654;DHT22;51065;48.884;12.598;2023-02-28T14:58:00;5.30;56.50
64654;DHT22;51065;48.884;12.598;2023-02-28T15:00:33;5.20;55.80
64654;DHT22;51065;48.884;12.598;2023-02-28T15:02:59;5.20;56.60
64654;DHT22;51065;48.884;12.598;2023-02-28T15:05:34;5.10;57.30
64654;DHT22;51065;48.884;12.598;2023-02-28T15:08:04;5.10;57.10
64654;DHT22;51065;48.884;12.598;2023-02-28T15:10:30;5.10;57.60
64654;DHT22;51065;48.884;12.598;2023-02-28T15:12:58;5.10;57.10
64654;DHT22;51065;48.884;12.598;2023-02-28T15:15:33;5.00;57.40
64654;DHT22;51065;48.884;12.598;2023-02-28T15:18:03;5.00;57.60
64654;DHT22;51065;48.884;12.598;2023-02-28T15:20:31;5.00;58.10
64654;DHT22;51065;48.884;12.598;2023-02-28T15:22:57;5.00;58.50
64654;DHT22;51065;48.884;12.598;2023-02-28T15:25:24;4.90;58.70
64654;DHT22;51065;48.884;12.598;2023-02-28T15:27:53;4.90;58.90
64654;DHT22;51065;48.884;12.598;2023-02-28T15:30:25;4.80;58.90
64654;DHT22;51065;48.884;12.598;2023-02-28T15:35:32;4.70;58.80
64654;DHT22;51065;48.884;12.598;2023-02-28T15:40:53;4.70;59.60
64654;DHT22;51065;48.884;12.598;2023-02-28T15:43:33;4.60;59.70
64654;DHT22;51065;48.884;12.598;2023-02-28T15:46:07;4.70;60.30
64654;DHT22;51065;48.884;12.598;2023-02-28T15:48:37;4.80;60.20
64654;DHT22;51065;48.884;12.598;2023-02-28T15:53:50;4.70;60.50
64654;DHT22;51065;48.884;12.598;2023-02-28T15:58:59;4.60;61.00
64654;DHT22;51065;48.884;12.598;2023-02-28T16:01:36;4.50;60.90
64654;DHT22;51065;48.884;12.598;2023-02-28T16:04:17;4.30;62.80
64654;DHT22;51065;48.884;12.598;2023-02-28T16:06:44;4.20;64.40
64654;DHT22;51065;48.884;12.598;2023-02-28T16:09:15;4.10;64.00
64654;DHT22;51065;48.884;12.598;2023-02-28T16:11:54;4.00;64.80
64654;DHT22;51065;48.884;12.598;2023-02-28T16:14:23;4.00;65.80
64654;DHT22;51065;48.884;12.598;2023-02-28T16:16:52;3.90;65.80
64654;DHT22;51065;48.884;12.598;2023-02-28T16:19:18;3.90;66.40
64654;DHT22;51065;48.884;12.598;2023-02-28T16:21:45;3.80;66.90
64654;DHT22;51065;48.884;12.598;2023-02-28T16:24:11;3.80;68.10
64654;DHT22;51065;48.884;12.598;2023-02-28T16:26:38;3.70;69.00
64654;DHT22;51065;48.884;12.598;2023-02-28T16:29:05;3.60;69.70
64654;DHT22;51065;48.884;12.598;2023-02-28T16:31:34;3.50;70.70
64654;DHT22;51065;48.884;12.598;2023-02-28T16:34:00;3.50;70.70
64654;DHT22;51065;48.884;12.598;2023-02-28T16:36:26;3.50;71.40
64654;DHT22;51065;48.884;12.598;2023-02-28T16:38:54;3.50;73.00
64654;DHT22;51065;48.884;12.598;2023-02-28T16:41:22;3.40;73.50
64654;DHT22;51065;48.884;12.598;2023-02-28T16:43:50;3.30;74.10
64654;DHT22;51065;48.884;12.598;2023-02-28T16:46:17;3.30;74.20
64654;DHT22;51065;48.884;12.598;2023-02-28T16:48:44;3.30;73.70
64654;DHT22;51065;48.884;12.598;2023-02-28T16:51:15;3.20;74.10
64654;DHT22;51065;48.884;12.598;2023-02-28T16:53:41;3.10;74.80
64654;DHT22;51065;48.884;12.598;2023-02-28T16:56:10;3.10;76.00
64654;DHT22;51065;48.884;12.598;2023-02-28T16:58:38;3.00;76.10
64654;DHT22;51065;48.884;12.598;2023-02-28T17:01:04;3.00;78.80
64654;DHT22;51065;48.884;12.598;2023-02-28T17:03:30;2.90;79.20
64654;DHT22;51065;48.884;12.598;2023-02-28T17:05:55;2.80;82.20
64654;DHT22;51065;48.884;12.598;2023-02-28T17:08:21;2.60;82.70
64654;DHT22;51065;48.884;12.598;2023-02-28T17:10:46;2.50;83.80
64654;DHT22;51065;48.884;12.598;2023-02-28T17:13:12;2.50;83.90
64654;DHT22;51065;48.884;12.598;2023-02-28T17:15:38;2.40;85.70
64654;DHT22;51065;48.884;12.598;2023-02-28T17:18:04;2.40;85.60
64654;DHT22;51065;48.884;12.598;2023-02-28T17:20:31;2.40;84.60
64654;DHT22;51065;48.884;12.598;2023-02-28T17:22:57;2.50;83.30
64654;DHT22;51065;48.884;12.598;2023-02-28T17:25:23;2.50;83.60
64654;DHT22;51065;48.884;12.598;2023-02-28T17:27:49;2.50;84.10
64654;DHT22;51065;48.884;12.598;2023-02-28T17:30:23;2.50;84.30
64654;DHT22;51065;48.884;12.598;2023-02-28T17:32:49;2.50;83.80
64654;DHT22;51065;48.884;12.598;2023-02-28T17:35:15;2.50;84.30
64654;DHT22;51065;48.884;12.598;2023-02-28T17:37:41;2.50;84.40
64654;DHT22;51065;48.884;12.598;2023-02-28T17:40:18;2.50;84.40
64654;DHT22;51065;48.884;12.598;2023-02-28T17:42:44;2.50;84.80
64654;DHT22;51065;48.884;12.598;2023-02-28T17:45:10;2.50;85.70
64654;DHT22;51065;48.884;12.598;2023-02-28T17:47:36;2.50;85.90
64654;DHT22;51065;48.884;12.598;2023-02-28T17:50:02;2.40;86.40
64654;DHT22;51065;48.884;12.598;2023-02-28T17:52:28;2.50;85.30